sensor_id;sensor_type;location;lat;lon;timestamp;P1;durP1;ratioP1;P2;durP2;ratioP2
60016;SDS011;45869;52.698;6.210;2023-06-14T00:01:55;4.07;;;1.63;;
60016;SDS011;45869;52.698;6.210;2023-06-14T00:04:21;4.88;;;1.70;;
60016;SDS011;45869;52.698;6.210;2023-06-14T00:06:50;4.30;;;1.83;;
60016;SDS011;45869;52.698;6.210;2023-06-14T00:09:16;5.43;;;1.83;;
60016;SDS011;45869;52.698;6.210;2023-06-14T00:11:43;5.30;;;1.80;;
60016;SDS011;45869;52.698;6.210;2023-06-14T00:14:09;3.50;;;1.67;;
60016;SDS011;45869;52.698;6.210;2023-06-14T00:16:35;4.38;;;1.73;;
60016;SDS011;45869;52.698;6.210;2023-06-14T00:19:02;5.53;;;1.90;;
60016;SDS011;45869;52.698;6.210;2023-06-14T00:21:29;4.18;;;1.45;;
60016;SDS011;45869;52.698;6.210;2023-06-14T00:23:56;5.25;;;2.10;;
60016;SDS011;45869;52.698;6.210;2023-06-14T00:26:22;5.03;;;2.03;;
60016;SDS011;45869;52.698;6.210;2023-06-14T00:28:48;4.88;;;1.73;;
60016;SDS011;45869;52.698;6.210;2023-06-14T00:31:15;5.90;;;1.83;;
60016;SDS011;45869;52.698;6.210;2023-06-14T00:33:41;7.18;;;1.83;;
60016;SDS011;45869;52.698;6.210;2023-06-14T00:36:07;6.32;;;1.50;;
60016;SDS011;45869;52.698;6.210;2023-06-14T00:38:33;4.10;;;1.55;;
60016;SDS011;45869;52.698;6.210;2023-06-14T00:40:59;6.07;;;1.67;;
60016;SDS011;45869;52.698;6.210;2023-06-14T00:43:25;4.53;;;1.63;;
60016;SDS011;45869;52.698;6.210;2023-06-14T00:45:51;5.35;;;1.80;;
60016;SDS011;45869;52.698;6.210;2023-06-14T00:48:17;3.85;;;1.60;;
60016;SDS011;45869;52.698;6.210;2023-06-14T00:50:47;5.82;;;1.77;;
60016;SDS011;45869;52.698;6.210;2023-06-14T00:53:15;4.18;;;1.50;;
60016;SDS011;45869;52.698;6.210;2023-06-14T00:55:42;4.90;;;1.55;;
60016;SDS011;45869;52.698;6.210;2023-06-14T00:58:08;3.88;;;1.60;;
60016;SDS011;45869;52.698;6.210;2023-06-14T01:00:35;4.53;;;1.63;;
60016;SDS011;45869;52.698;6.210;2023-06-14T01:03:01;3.28;;;1.65;;
60016;SDS011;45869;52.698;6.210;2023-06-14T01:05:28;4.68;;;1.63;;
60016;SDS011;45869;52.698;6.210;2023-06-14T01:13:17;5.45;;;1.90;;
60016;SDS011;45869;52.698;6.210;2023-06-14T01:15:47;4.05;;;1.60;;
60016;SDS011;45869;52.698;6.210;2023-06-14T01:18:13;6.10;;;1.50;;
60016;SDS011;45869;52.698;6.210;2023-06-14T01:20:42;7.35;;;1.65;;
60016;SDS011;45869;52.698;6.210;2023-06-14T01:23:10;5.30;;;1.83;;
60016;SDS011;45869;52.698;6.210;2023-06-14T01:25:37;5.40;;;1.63;;
60016;SDS011;45869;52.698;6.210;2023-06-14T01:28:04;4.05;;;1.85;;
60016;SDS011;45869;52.698;6.210;2023-06-14T01:30:35;5.00;;;1.70;;
60016;SDS011;45869;52.698;6.210;2023-06-14T01:33:02;4.25;;;1.63;;
60016;SDS011;45869;52.698;6.210;2023-06-14T01:35:29;4.90;;;1.80;;
60016;SDS011;45869;52.698;6.210;2023-06-14T01:37:55;2.95;;;1.60;;
60016;SDS011;45869;52.698;6.210;2023-06-14T01:40:22;4.07;;;1.60;;
60016;SDS011;45869;52.698;6.210;2023-06-14T01:42:51;4.25;;;1.60;;
60016;SDS011;45869;52.698;6.210;2023-06-14T01:45:18;4.50;;;1.80;;
60016;SDS011;45869;52.698;6.210;2023-06-14T01:47:45;4.88;;;1.70;;
60016;SDS011;45869;52.698;6.210;2023-06-14T01:50:11;5.05;;;1.90;;
60016;SDS011;45869;52.698;6.210;2023-06-14T01:52:37;4.20;;;1.85;;
60016;SDS011;45869;52.698;6.210;2023-06-14T01:55:04;4.93;;;1.73;;
60016;SDS011;45869;52.698;6.210;2023-06-14T01:57:30;5.30;;;1.70;;
60016;SDS011;45869;52.698;6.210;2023-06-14T01:59:56;9.02;;;1.70;;
60016;SDS011;45869;52.698;6.210;2023-06-14T02:02:22;4.68;;;1.58;;
60016;SDS011;45869;52.698;6.210;2023-06-14T02:04:48;4.47;;;1.58;;
60016;SDS011;45869;52.698;6.210;2023-06-14T02:07:14;5.53;;;1.80;;
60016;SDS011;45869;52.698;6.210;2023-06-14T02:09:40;4.15;;;1.67;;
60016;SDS011;45869;52.698;6.210;2023-06-14T02:12:07;4.85;;;1.75;;
60016;SDS011;45869;52.698;6.210;2023-06-14T02:14:33;3.65;;;1.70;;
60016;SDS011;45869;52.698;6.210;2023-06-14T02:16:59;4.80;;;1.73;;
60016;SDS011;45869;52.698;6.210;2023-06-14T02:19:26;4.85;;;1.70;;
60016;SDS011;45869;52.698;6.210;2023-06-14T02:21:52;6.28;;;1.70;;
60016;SDS011;45869;52.698;6.210;2023-06-14T02:24:18;5.72;;;1.63;;
60016;SDS011;45869;52.698;6.210;2023-06-14T02:26:44;4.18;;;1.77;;
60016;SDS011;45869;52.698;6.210;2023-06-14T02:29:10;3.67;;;1.63;;
60016;SDS011;45869;52.698;6.210;2023-06-14T02:31:37;4.88;;;1.85;;
60016;SDS011;45869;52.698;6.210;2023-06-14T02:34:04;5.28;;;1.90;;
60016;SDS011;45869;52.698;6.210;2023-06-14T02:36:30;5.50;;;1.52;;
60016;SDS011;45869;52.698;6.210;2023-06-14T02:38:56;5.22;;;1.80;;
60016;SDS011;45869;52.698;6.210;2023-06-14T02:41:25;3.17;;;1.55;;
60016;SDS011;45869;52.698;6.210;2023-06-14T02:43:52;5.28;;;1.90;;
60016;SDS011;45869;52.698;6.210;2023-06-14T02:46:18;6.90;;;1.70;;
60016;SDS011;45869;52.698;6.210;2023-06-14T02:48:44;4.50;;;1.60;;
60016;SDS011;45869;52.698;6.210;2023-06-14T02:51:10;6.05;;;2.00;;
60016;SDS011;45869;52.698;6.210;2023-06-14T02:53:37;6.00;;;2.05;;
60016;SDS011;45869;52.698;6.210;2023-06-14T02:56:03;6.10;;;2.00;;
60016;SDS011;45869;52.698;6.210;2023-06-14T02:58:30;5.18;;;1.90;;
60016;SDS011;45869;52.698;6.210;2023-06-14T03:00:56;6.65;;;2.20;;
60016;SDS011;45869;52.698;6.210;2023-06-14T03:03:22;4.63;;;2.10;;
60016;SDS011;45869;52.698;6.210;2023-06-14T03:05:49;4.40;;;1.80;;
60016;SDS011;45869;52.698;6.210;2023-06-14T03:08:16;4.57;;;1.80;;
60016;SDS011;45869;52.698;6.210;2023-06-14T03:10:47;5.20;;;1.90;;
60016;SDS011;45869;52.698;6.210;2023-06-14T03:13:15;6.70;;;2.35;;
60016;SDS011;45869;52.698;6.210;2023-06-14T03:15:42;6.35;;;2.05;;
60016;SDS011;45869;52.698;6.210;2023-06-14T03:18:10;4.68;;;1.75;;
60016;SDS011;45869;52.698;6.210;2023-06-14T03:20:37;4.38;;;1.80;;
60016;SDS011;45869;52.698;6.210;2023-06-14T03:23:03;5.90;;;1.98;;
60016;SDS011;45869;52.698;6.210;2023-06-14T03:25:30;5.15;;;2.22;;
60016;SDS011;45869;52.698;6.210;2023-06-14T03:27:58;8.23;;;2.22;;
60016;SDS011;45869;52.698;6.210;2023-06-14T03:30:24;3.75;;;2.15;;
60016;SDS011;45869;52.698;6.210;2023-06-14T03:32:50;4.88;;;2.10;;
60016;SDS011;45869;52.698;6.210;2023-06-14T03:35:18;5.78;;;2.00;;
60016;SDS011;45869;52.698;6.210;2023-06-14T03:37:44;6.35;;;1.88;;
60016;SDS011;45869;52.698;6.210;2023-06-14T03:40:11;5.65;;;1.98;;
60016;SDS011;45869;52.698;6.210;2023-06-14T03:42:37;5.05;;;2.10;;
60016;SDS011;45869;52.698;6.210;2023-06-14T03:45:03;4.55;;;1.95;;
60016;SDS011;45869;52.698;6.210;2023-06-14T03:47:30;3.47;;;1.80;;
60016;SDS011;45869;52.698;6.210;2023-06-14T03:49:56;3.85;;;1.88;;
60016;SDS011;45869;52.698;6.210;2023-06-14T03:52:22;3.78;;;2.00;;
60016;SDS011;45869;52.698;6.210;2023-06-14T03:54:48;4.60;;;1.90;;
60016;SDS011;45869;52.698;6.210;2023-06-14T03:57:15;5.97;;;2.20;;
60016;SDS011;45869;52.698;6.210;2023-06-14T03:59:41;4.88;;;1.95;;
60016;SDS011;45869;52.698;6.210;2023-06-14T04:02:07;5.68;;;1.95;;
60016;SDS011;45869;52.698;6.210;2023-06-14T04:04:34;6.20;;;2.03;;
60016;SDS011;45869;52.698;6.210;2023-06-14T04:07:00;3.75;;;1.95;;
60016;SDS011;45869;52.698;6.210;2023-06-14T04:09:31;4.00;;;1.73;;
60016;SDS011;45869;52.698;6.210;2023-06-14T04:11:57;4.50;;;2.10;;
60016;SDS011;45869;52.698;6.210;2023-06-14T04:14:23;5.45;;;1.70;;
60016;SDS011;45869;52.698;6.210;2023-06-14T04:16:49;5.32;;;2.00;;
60016;SDS011;45869;52.698;6.210;2023-06-14T04:19:15;6.05;;;2.08;;
60016;SDS011;45869;52.698;6.210;2023-06-14T04:21:41;4.55;;;1.75;;
60016;SDS011;45869;52.698;6.210;2023-06-14T04:24:07;5.88;;;2.10;;
60016;SDS011;45869;52.698;6.210;2023-06-14T04:26:41;3.08;;;1.80;;
60016;SDS011;45869;52.698;6.210;2023-06-14T04:29:10;4.55;;;1.58;;
60016;SDS011;45869;52.698;6.210;2023-06-14T04:31:42;3.83;;;1.70;;
60016;SDS011;45869;52.698;6.210;2023-06-14T04:34:11;4.20;;;2.05;;
60016;SDS011;45869;52.698;6.210;2023-06-14T04:36:42;3.88;;;1.70;;
60016;SDS011;45869;52.698;6.210;2023-06-14T04:39:21;4.90;;;1.77;;
60016;SDS011;45869;52.698;6.210;2023-06-14T04:41:51;4.20;;;1.80;;
60016;SDS011;45869;52.698;6.210;2023-06-14T04:44:24;5.40;;;2.00;;
60016;SDS011;45869;52.698;6.210;2023-06-14T04:46:54;7.13;;;2.08;;
60016;SDS011;45869;52.698;6.210;2023-06-14T04:49:21;6.22;;;1.73;;
60016;SDS011;45869;52.698;6.210;2023-06-14T04:51:48;5.68;;;2.00;;
60016;SDS011;45869;52.698;6.210;2023-06-14T04:54:22;5.32;;;2.25;;
60016;SDS011;45869;52.698;6.210;2023-06-14T04:56:49;5.13;;;2.20;;
60016;SDS011;45869;52.698;6.210;2023-06-14T04:59:15;4.47;;;1.90;;
60016;SDS011;45869;52.698;6.210;2023-06-14T05:01:42;4.50;;;1.80;;
60016;SDS011;45869;52.698;6.210;2023-06-14T05:04:14;6.55;;;2.15;;
60016;SDS011;45869;52.698;6.210;2023-06-14T05:06:44;5.00;;;2.00;;
60016;SDS011;45869;52.698;6.210;2023-06-14T05:09:13;4.93;;;2.10;;
60016;SDS011;45869;52.698;6.210;2023-06-14T05:11:41;4.57;;;1.77;;
60016;SDS011;45869;52.698;6.210;2023-06-14T05:14:13;6.65;;;2.20;;
60016;SDS011;45869;52.698;6.210;2023-06-14T05:16:39;6.15;;;2.28;;
60016;SDS011;45869;52.698;6.210;2023-06-14T05:19:08;5.68;;;2.10;;
60016;SDS011;45869;52.698;6.210;2023-06-14T05:21:35;4.07;;;1.67;;
60016;SDS011;45869;52.698;6.210;2023-06-14T05:24:02;4.70;;;1.80;;
60016;SDS011;45869;52.698;6.210;2023-06-14T05:26:28;3.53;;;1.80;;
60016;SDS011;45869;52.698;6.210;2023-06-14T05:28:55;6.32;;;2.22;;
60016;SDS011;45869;52.698;6.210;2023-06-14T05:31:22;4.72;;;2.22;;
60016;SDS011;45869;52.698;6.210;2023-06-14T05:33:49;4.30;;;1.80;;
60016;SDS011;45869;52.698;6.210;2023-06-14T05:36:17;4.40;;;1.90;;
60016;SDS011;45869;52.698;6.210;2023-06-14T05:38:44;3.90;;;1.88;;
60016;SDS011;45869;52.698;6.210;2023-06-14T05:41:10;5.15;;;2.17;;
60016;SDS011;45869;52.698;6.210;2023-06-14T05:43:36;4.72;;;2.15;;
60016;SDS011;45869;52.698;6.210;2023-06-14T05:46:02;3.92;;;1.85;;
60016;SDS011;45869;52.698;6.210;2023-06-14T05:48:28;4.55;;;1.80;;
60016;SDS011;45869;52.698;6.210;2023-06-14T05:50:58;5.43;;;2.05;;
60016;SDS011;45869;52.698;6.210;2023-06-14T05:53:27;3.72;;;1.75;;
60016;SDS011;45869;52.698;6.210;2023-06-14T05:55:53;5.10;;;1.90;;
60016;SDS011;45869;52.698;6.210;2023-06-14T05:58:20;4.95;;;2.03;;
60016;SDS011;45869;52.698;6.210;2023-06-14T06:00:46;6.20;;;2.17;;
60016;SDS011;45869;52.698;6.210;2023-06-14T06:03:13;5.50;;;2.30;;
60016;SDS011;45869;52.698;6.210;2023-06-14T06:05:39;5.30;;;1.95;;
60016;SDS011;45869;52.698;6.210;2023-06-14T06:08:08;3.40;;;1.80;;
60016;SDS011;45869;52.698;6.210;2023-06-14T06:10:34;4.22;;;2.00;;
60016;SDS011;45869;52.698;6.210;2023-06-14T06:13:00;3.90;;;1.70;;
60016;SDS011;45869;52.698;6.210;2023-06-14T06:15:26;4.60;;;1.83;;
60016;SDS011;45869;52.698;6.210;2023-06-14T06:17:52;4.50;;;1.70;;
60016;SDS011;45869;52.698;6.210;2023-06-14T06:20:18;4.07;;;1.83;;
60016;SDS011;45869;52.698;6.210;2023-06-14T06:22:44;3.90;;;1.63;;
60016;SDS011;45869;52.698;6.210;2023-06-14T06:25:10;3.65;;;1.55;;
60016;SDS011;45869;52.698;6.210;2023-06-14T06:27:36;4.05;;;1.70;;
60016;SDS011;45869;52.698;6.210;2023-06-14T06:30:05;5.35;;;1.67;;
60016;SDS011;45869;52.698;6.210;2023-06-14T06:32:31;4.38;;;1.67;;
60016;SDS011;45869;52.698;6.210;2023-06-14T06:34:57;5.05;;;1.50;;
60016;SDS011;45869;52.698;6.210;2023-06-14T06:37:25;4.68;;;1.52;;
60016;SDS011;45869;52.698;6.210;2023-06-14T06:39:51;3.78;;;1.70;;
60016;SDS011;45869;52.698;6.210;2023-06-14T06:42:17;2.58;;;1.42;;
60016;SDS011;45869;52.698;6.210;2023-06-14T06:44:43;4.03;;;1.80;;
60016;SDS011;45869;52.698;6.210;2023-06-14T06:47:12;5.55;;;1.58;;
60016;SDS011;45869;52.698;6.210;2023-06-14T06:49:38;3.55;;;1.40;;
60016;SDS011;45869;52.698;6.210;2023-06-14T06:52:07;5.45;;;1.50;;
60016;SDS011;45869;52.698;6.210;2023-06-14T06:54:33;3.35;;;1.55;;
60016;SDS011;45869;52.698;6.210;2023-06-14T06:56:59;2.55;;;1.45;;
60016;SDS011;45869;52.698;6.210;2023-06-14T06:59:29;5.53;;;1.40;;
60016;SDS011;45869;52.698;6.210;2023-06-14T07:01:55;2.78;;;1.55;;
60016;SDS011;45869;52.698;6.210;2023-06-14T07:04:21;4.53;;;1.67;;
60016;SDS011;45869;52.698;6.210;2023-06-14T07:06:47;4.80;;;1.67;;
60016;SDS011;45869;52.698;6.210;2023-06-14T07:09:13;4.10;;;1.40;;
60016;SDS011;45869;52.698;6.210;2023-06-14T07:11:41;2.97;;;1.42;;
60016;SDS011;45869;52.698;6.210;2023-06-14T07:14:10;4.20;;;1.60;;
60016;SDS011;45869;52.698;6.210;2023-06-14T07:16:36;4.47;;;1.42;;
60016;SDS011;45869;52.698;6.210;2023-06-14T07:19:02;3.05;;;1.30;;
60016;SDS011;45869;52.698;6.210;2023-06-14T07:21:29;4.50;;;1.50;;
60016;SDS011;45869;52.698;6.210;2023-06-14T07:23:55;3.20;;;1.23;;
60016;SDS011;45869;52.698;6.210;2023-06-14T07:26:21;3.17;;;1.50;;
60016;SDS011;45869;52.698;6.210;2023-06-14T07:28:48;2.63;;;1.48;;
60016;SDS011;45869;52.698;6.210;2023-06-14T07:31:17;2.45;;;1.40;;
60016;SDS011;45869;52.698;6.210;2023-06-14T07:33:44;6.47;;;1.30;;
60016;SDS011;45869;52.698;6.210;2023-06-14T07:36:10;2.83;;;1.20;;
60016;SDS011;45869;52.698;6.210;2023-06-14T07:38:36;3.53;;;1.30;;
60016;SDS011;45869;52.698;6.210;2023-06-14T07:41:05;4.75;;;1.38;;
60016;SDS011;45869;52.698;6.210;2023-06-14T07:43:31;2.80;;;1.20;;
60016;SDS011;45869;52.698;6.210;2023-06-14T07:45:57;4.93;;;1.10;;
60016;SDS011;45869;52.698;6.210;2023-06-14T07:48:23;5.10;;;1.10;;
60016;SDS011;45869;52.698;6.210;2023-06-14T07:50:49;4.40;;;1.48;;
60016;SDS011;45869;52.698;6.210;2023-06-14T07:53:15;3.13;;;1.15;;
60016;SDS011;45869;52.698;6.210;2023-06-14T07:55:41;3.85;;;1.20;;
60016;SDS011;45869;52.698;6.210;2023-06-14T07:58:08;6.88;;;1.52;;
60016;SDS011;45869;52.698;6.210;2023-06-14T08:00:35;4.30;;;1.42;;
60016;SDS011;45869;52.698;6.210;2023-06-14T08:03:01;3.67;;;1.20;;
60016;SDS011;45869;52.698;6.210;2023-06-14T08:05:28;3.55;;;1.48;;
60016;SDS011;45869;52.698;6.210;2023-06-14T08:07:54;3.58;;;1.10;;
60016;SDS011;45869;52.698;6.210;2023-06-14T08:10:20;6.53;;;1.48;;
60016;SDS011;45869;52.698;6.210;2023-06-14T08:12:46;2.67;;;1.00;;
60016;SDS011;45869;52.698;6.210;2023-06-14T08:15:15;3.50;;;1.00;;
60016;SDS011;45869;52.698;6.210;2023-06-14T08:17:42;2.20;;;1.10;;
60016;SDS011;45869;52.698;6.210;2023-06-14T08:20:08;5.72;;;1.60;;
60016;SDS011;45869;52.698;6.210;2023-06-14T08:22:35;5.07;;;1.30;;
60016;SDS011;45869;52.698;6.210;2023-06-14T08:25:02;2.08;;;1.02;;
60016;SDS011;45869;52.698;6.210;2023-06-14T08:27:29;3.67;;;1.30;;
60016;SDS011;45869;52.698;6.210;2023-06-14T08:29:55;7.80;;;1.40;;
60016;SDS011;45869;52.698;6.210;2023-06-14T08:32:21;5.80;;;1.13;;
60016;SDS011;45869;52.698;6.210;2023-06-14T08:34:47;5.55;;;1.80;;
60016;SDS011;45869;52.698;6.210;2023-06-14T08:37:13;4.78;;;1.00;;
60016;SDS011;45869;52.698;6.210;2023-06-14T08:39:39;7.60;;;1.15;;
60016;SDS011;45869;52.698;6.210;2023-06-14T08:42:05;8.75;;;1.17;;
60016;SDS011;45869;52.698;6.210;2023-06-14T08:44:32;2.58;;;0.98;;
60016;SDS011;45869;52.698;6.210;2023-06-14T08:47:07;4.57;;;1.08;;
60016;SDS011;45869;52.698;6.210;2023-06-14T08:49:36;2.83;;;1.10;;
60016;SDS011;45869;52.698;6.210;2023-06-14T08:52:03;2.25;;;1.00;;
60016;SDS011;45869;52.698;6.210;2023-06-14T08:54:31;2.45;;;1.10;;
60016;SDS011;45869;52.698;6.210;2023-06-14T08:57:01;2.50;;;0.90;;
60016;SDS011;45869;52.698;6.210;2023-06-14T08:59:27;3.88;;;0.90;;
60016;SDS011;45869;52.698;6.210;2023-06-14T09:01:53;4.60;;;1.10;;
60016;SDS011;45869;52.698;6.210;2023-06-14T09:04:20;3.30;;;1.00;;
60016;SDS011;45869;52.698;6.210;2023-06-14T09:06:54;3.45;;;1.00;;
60016;SDS011;45869;52.698;6.210;2023-06-14T09:09:21;3.33;;;1.10;;
60016;SDS011;45869;52.698;6.210;2023-06-14T09:11:49;4.95;;;1.20;;
60016;SDS011;45869;52.698;6.210;2023-06-14T09:14:15;8.13;;;1.55;;
60016;SDS011;45869;52.698;6.210;2023-06-14T09:16:41;3.67;;;0.88;;
60016;SDS011;45869;52.698;6.210;2023-06-14T09:19:07;2.13;;;0.80;;
60016;SDS011;45869;52.698;6.210;2023-06-14T09:21:34;2.92;;;0.90;;
60016;SDS011;45869;52.698;6.210;2023-06-14T09:24:03;2.47;;;1.10;;
60016;SDS011;45869;52.698;6.210;2023-06-14T09:26:29;1.88;;;1.00;;
60016;SDS011;45869;52.698;6.210;2023-06-14T09:28:55;4.05;;;0.90;;
60016;SDS011;45869;52.698;6.210;2023-06-14T09:31:21;2.10;;;0.90;;
60016;SDS011;45869;52.698;6.210;2023-06-14T09:33:48;4.07;;;0.88;;
60016;SDS011;45869;52.698;6.210;2023-06-14T09:36:24;2.58;;;0.77;;
60016;SDS011;45869;52.698;6.210;2023-06-14T09:38:57;2.65;;;0.85;;
60016;SDS011;45869;52.698;6.210;2023-06-14T09:43:49;1.67;;;0.70;;
60016;SDS011;45869;52.698;6.210;2023-06-14T09:46:15;4.65;;;0.90;;
60016;SDS011;45869;52.698;6.210;2023-06-14T09:48:42;1.50;;;0.90;;
60016;SDS011;45869;52.698;6.210;2023-06-14T09:51:09;3.58;;;0.80;;
60016;SDS011;45869;52.698;6.210;2023-06-14T09:53:35;2.65;;;0.98;;
60016;SDS011;45869;52.698;6.210;2023-06-14T09:56:08;2.50;;;0.85;;
60016;SDS011;45869;52.698;6.210;2023-06-14T09:58:35;4.32;;;0.82;;
60016;SDS011;45869;52.698;6.210;2023-06-14T10:01:02;1.85;;;0.80;;
60016;SDS011;45869;52.698;6.210;2023-06-14T10:03:30;3.33;;;0.90;;
60016;SDS011;45869;52.698;6.210;2023-06-14T10:05:58;3.30;;;0.77;;
60016;SDS011;45869;52.698;6.210;2023-06-14T10:08:28;3.10;;;0.90;;
60016;SDS011;45869;52.698;6.210;2023-06-14T10:10:58;2.45;;;0.80;;
60016;SDS011;45869;52.698;6.210;2023-06-14T10:13:25;2.08;;;0.88;;
60016;SDS011;45869;52.698;6.210;2023-06-14T10:20:53;2.47;;;0.70;;
60016;SDS011;45869;52.698;6.210;2023-06-14T10:23:22;2.40;;;0.82;;
60016;SDS011;45869;52.698;6.210;2023-06-14T10:25:50;2.72;;;0.90;;
60016;SDS011;45869;52.698;6.210;2023-06-14T10:28:19;4.85;;;0.70;;
60016;SDS011;45869;52.698;6.210;2023-06-14T10:33:31;1.77;;;0.68;;
60016;SDS011;45869;52.698;6.210;2023-06-14T10:36:10;4.75;;;0.60;;
60016;SDS011;45869;52.698;6.210;2023-06-14T10:39:01;3.90;;;0.50;;
60016;SDS011;45869;52.698;6.210;2023-06-14T10:41:30;5.15;;;0.50;;
60016;SDS011;45869;52.698;6.210;2023-06-14T10:46:38;3.80;;;0.70;;
60016;SDS011;45869;52.698;6.210;2023-06-14T10:49:07;2.83;;;0.68;;
60016;SDS011;45869;52.698;6.210;2023-06-14T10:51:39;4.72;;;0.63;;
60016;SDS011;45869;52.698;6.210;2023-06-14T10:54:12;2.17;;;0.55;;
60016;SDS011;45869;52.698;6.210;2023-06-14T10:56:39;2.40;;;0.68;;
60016;SDS011;45869;52.698;6.210;2023-06-14T10:59:11;9.98;;;1.00;;
60016;SDS011;45869;52.698;6.210;2023-06-14T11:01:57;3.83;;;0.60;;
60016;SDS011;45869;52.698;6.210;2023-06-14T11:07:19;2.85;;;0.57;;
60016;SDS011;45869;52.698;6.210;2023-06-14T11:12:16;1.70;;;0.70;;
60016;SDS011;45869;52.698;6.210;2023-06-14T11:14:45;3.05;;;0.70;;
60016;SDS011;45869;52.698;6.210;2023-06-14T11:17:12;2.00;;;0.60;;
60016;SDS011;45869;52.698;6.210;2023-06-14T11:19:38;1.83;;;0.90;;
60016;SDS011;45869;52.698;6.210;2023-06-14T11:22:04;5.25;;;0.60;;
60016;SDS011;45869;52.698;6.210;2023-06-14T11:24:32;1.58;;;0.63;;
60016;SDS011;45869;52.698;6.210;2023-06-14T11:26:58;2.30;;;1.13;;
60016;SDS011;45869;52.698;6.210;2023-06-14T11:29:24;3.85;;;0.60;;
60016;SDS011;45869;52.698;6.210;2023-06-14T11:31:50;2.15;;;0.60;;
60016;SDS011;45869;52.698;6.210;2023-06-14T11:34:20;3.50;;;0.82;;
60016;SDS011;45869;52.698;6.210;2023-06-14T11:36:49;4.35;;;0.88;;
60016;SDS011;45869;52.698;6.210;2023-06-14T11:39:15;3.60;;;0.63;;
60016;SDS011;45869;52.698;6.210;2023-06-14T11:41:42;2.53;;;0.90;;
60016;SDS011;45869;52.698;6.210;2023-06-14T11:44:08;3.83;;;0.75;;
60016;SDS011;45869;52.698;6.210;2023-06-14T11:46:35;1.95;;;0.50;;
60016;SDS011;45869;52.698;6.210;2023-06-14T11:49:01;4.78;;;0.80;;
60016;SDS011;45869;52.698;6.210;2023-06-14T11:51:38;1.75;;;0.68;;
60016;SDS011;45869;52.698;6.210;2023-06-14T11:54:04;2.88;;;0.70;;
60016;SDS011;45869;52.698;6.210;2023-06-14T11:56:31;2.67;;;0.60;;
60016;SDS011;45869;52.698;6.210;2023-06-14T11:58:57;6.80;;;0.70;;
60016;SDS011;45869;52.698;6.210;2023-06-14T12:01:23;5.72;;;0.88;;
60016;SDS011;45869;52.698;6.210;2023-06-14T12:03:51;3.53;;;0.68;;
60016;SDS011;45869;52.698;6.210;2023-06-14T12:06:24;4.50;;;0.68;;
60016;SDS011;45869;52.698;6.210;2023-06-14T12:08:55;3.10;;;0.80;;
60016;SDS011;45869;52.698;6.210;2023-06-14T12:11:21;3.95;;;0.80;;
60016;SDS011;45869;52.698;6.210;2023-06-14T12:13:47;1.33;;;0.50;;
60016;SDS011;45869;52.698;6.210;2023-06-14T12:16:14;4.57;;;0.82;;
60016;SDS011;45869;52.698;6.210;2023-06-14T12:18:43;2.33;;;0.50;;
60016;SDS011;45869;52.698;6.210;2023-06-14T12:21:10;2.97;;;0.77;;
60016;SDS011;45869;52.698;6.210;2023-06-14T12:26:08;4.95;;;0.95;;
60016;SDS011;45869;52.698;6.210;2023-06-14T12:28:35;3.38;;;0.90;;
60016;SDS011;45869;52.698;6.210;2023-06-14T12:31:01;3.35;;;1.00;;
60016;SDS011;45869;52.698;6.210;2023-06-14T12:33:31;3.78;;;0.93;;
60016;SDS011;45869;52.698;6.210;2023-06-14T12:36:02;3.67;;;0.77;;
60016;SDS011;45869;52.698;6.210;2023-06-14T12:38:32;3.65;;;0.82;;
60016;SDS011;45869;52.698;6.210;2023-06-14T12:41:01;2.65;;;0.60;;
60016;SDS011;45869;52.698;6.210;2023-06-14T12:43:27;3.80;;;0.90;;
60016;SDS011;45869;52.698;6.210;2023-06-14T12:45:53;4.50;;;0.90;;
60016;SDS011;45869;52.698;6.210;2023-06-14T12:48:19;3.28;;;0.85;;
60016;SDS011;45869;52.698;6.210;2023-06-14T12:50:46;2.85;;;0.80;;
60016;SDS011;45869;52.698;6.210;2023-06-14T12:53:12;1.55;;;0.70;;
60016;SDS011;45869;52.698;6.210;2023-06-14T12:55:41;2.70;;;0.70;;
60016;SDS011;45869;52.698;6.210;2023-06-14T12:58:07;4.53;;;0.88;;
60016;SDS011;45869;52.698;6.210;2023-06-14T13:00:33;3.90;;;0.82;;
60016;SDS011;45869;52.698;6.210;2023-06-14T13:02:59;1.80;;;0.80;;
60016;SDS011;45869;52.698;6.210;2023-06-14T13:05:25;1.75;;;0.88;;
60016;SDS011;45869;52.698;6.210;2023-06-14T13:07:54;1.65;;;0.70;;
60016;SDS011;45869;52.698;6.210;2023-06-14T13:10:20;6.78;;;0.90;;
60016;SDS011;45869;52.698;6.210;2023-06-14T13:12:46;3.28;;;0.60;;
60016;SDS011;45869;52.698;6.210;2023-06-14T13:15:12;4.30;;;0.70;;
60016;SDS011;45869;52.698;6.210;2023-06-14T13:17:38;3.28;;;0.88;;
60016;SDS011;45869;52.698;6.210;2023-06-14T13:20:05;2.05;;;0.90;;
60016;SDS011;45869;52.698;6.210;2023-06-14T13:22:32;3.83;;;0.80;;
60016;SDS011;45869;52.698;6.210;2023-06-14T13:24:58;10.65;;;1.25;;
60016;SDS011;45869;52.698;6.210;2023-06-14T13:27:25;3.88;;;0.70;;
60016;SDS011;45869;52.698;6.210;2023-06-14T13:29:51;2.38;;;0.80;;
60016;SDS011;45869;52.698;6.210;2023-06-14T13:32:21;2.63;;;1.00;;
60016;SDS011;45869;52.698;6.210;2023-06-14T13:34:47;3.22;;;0.70;;
60016;SDS011;45869;52.698;6.210;2023-06-14T13:37:13;3.72;;;0.80;;
60016;SDS011;45869;52.698;6.210;2023-06-14T13:39:39;4.82;;;0.80;;
60016;SDS011;45869;52.698;6.210;2023-06-14T13:42:09;1.88;;;0.70;;
60016;SDS011;45869;52.698;6.210;2023-06-14T13:44:35;3.08;;;0.98;;
60016;SDS011;45869;52.698;6.210;2023-06-14T13:47:02;2.08;;;0.65;;
60016;SDS011;45869;52.698;6.210;2023-06-14T13:49:28;2.65;;;1.10;;
60016;SDS011;45869;52.698;6.210;2023-06-14T13:51:54;4.95;;;0.93;;
60016;SDS011;45869;52.698;6.210;2023-06-14T13:54:20;4.15;;;0.70;;
60016;SDS011;45869;52.698;6.210;2023-06-14T13:56:46;2.92;;;0.82;;
60016;SDS011;45869;52.698;6.210;2023-06-14T13:59:13;3.25;;;0.70;;
60016;SDS011;45869;52.698;6.210;2023-06-14T14:01:42;5.03;;;0.70;;
60016;SDS011;45869;52.698;6.210;2023-06-14T14:04:08;3.28;;;0.80;;
60016;SDS011;45869;52.698;6.210;2023-06-14T14:06:34;2.95;;;0.70;;
60016;SDS011;45869;52.698;6.210;2023-06-14T14:09:00;1.95;;;0.85;;
60016;SDS011;45869;52.698;6.210;2023-06-14T14:11:29;2.42;;;0.65;;
60016;SDS011;45869;52.698;6.210;2023-06-14T14:13:58;1.90;;;0.90;;
60016;SDS011;45869;52.698;6.210;2023-06-14T14:16:24;4.50;;;0.73;;
60016;SDS011;45869;52.698;6.210;2023-06-14T14:18:50;1.98;;;0.90;;
60016;SDS011;45869;52.698;6.210;2023-06-14T14:21:16;3.13;;;0.73;;
60016;SDS011;45869;52.698;6.210;2023-06-14T14:23:45;1.73;;;0.80;;
60016;SDS011;45869;52.698;6.210;2023-06-14T14:26:12;2.63;;;0.80;;
60016;SDS011;45869;52.698;6.210;2023-06-14T14:28:38;2.83;;;0.73;;
60016;SDS011;45869;52.698;6.210;2023-06-14T14:31:06;2.47;;;0.80;;
60016;SDS011;45869;52.698;6.210;2023-06-14T14:33:32;5.10;;;0.70;;
60016;SDS011;45869;52.698;6.210;2023-06-14T14:36:00;2.05;;;0.80;;
60016;SDS011;45869;52.698;6.210;2023-06-14T14:38:29;2.78;;;0.80;;
60016;SDS011;45869;52.698;6.210;2023-06-14T14:40:55;1.60;;;0.68;;
60016;SDS011;45869;52.698;6.210;2023-06-14T14:43:21;1.50;;;0.68;;
60016;SDS011;45869;52.698;6.210;2023-06-14T14:45:47;1.85;;;0.50;;
60016;SDS011;45869;52.698;6.210;2023-06-14T14:48:14;2.78;;;0.80;;
60016;SDS011;45869;52.698;6.210;2023-06-14T14:50:40;2.53;;;0.88;;
60016;SDS011;45869;52.698;6.210;2023-06-14T14:53:06;1.38;;;0.50;;
60016;SDS011;45869;52.698;6.210;2023-06-14T14:55:38;3.45;;;0.70;;
60016;SDS011;45869;52.698;6.210;2023-06-14T14:58:06;2.70;;;0.70;;
60016;SDS011;45869;52.698;6.210;2023-06-14T15:00:33;2.00;;;0.63;;
60016;SDS011;45869;52.698;6.210;2023-06-14T15:02:59;1.33;;;0.60;;
60016;SDS011;45869;52.698;6.210;2023-06-14T15:05:37;1.98;;;0.57;;
60016;SDS011;45869;52.698;6.210;2023-06-14T15:08:03;2.42;;;0.55;;
60016;SDS011;45869;52.698;6.210;2023-06-14T15:10:35;2.20;;;0.63;;
60016;SDS011;45869;52.698;6.210;2023-06-14T15:13:02;3.03;;;0.60;;
60016;SDS011;45869;52.698;6.210;2023-06-14T15:15:28;2.42;;;0.70;;